Huron, Tennessee
Current Conditions -  °F | °C
As of 5:15 AM on Friday 28 Nov 2014 (Local Time) from KPVE Reporting Station
Clear Clear  
Wind Chill: -6°   Ceiling: Unl
Heat Index: -6°   Visibility: 10mi
Dew Point: -7°   Wind: 0mph
Humidity: 93%   Direction: NA
Pressure: 30.41"   Gusts: NA
Location:  35.59°N, 88.53°W
Report Text: KPVE 281115Z AUTO 00000KT 10SM CLR M06/M07 A3041 RMK
Loading
Personal Weather Stations






























Interactive Weather Map New forecast layout! Learn more

10-Day Weather Forecast

Advertisements
Track Severe Weather on mobile